createdAt,value
2023-05-04T00:01:22.331Z,4.60
2023-05-04T00:05:24.456Z,4.50
2023-05-04T00:09:27.010Z,4.55
2023-05-04T00:13:29.024Z,4.52
2023-05-04T00:17:31.853Z,4.44
2023-05-04T00:21:34.024Z,4.33
2023-05-04T00:25:36.080Z,4.34
2023-05-04T00:29:38.127Z,4.29
2023-05-04T00:33:40.157Z,4.27
2023-05-04T00:37:43.702Z,4.17
2023-05-04T00:41:45.882Z,4.18
2023-05-04T00:45:48.130Z,4.25
2023-05-04T00:49:52.060Z,4.17
2023-05-04T00:53:55.763Z,4.08
2023-05-04T00:57:57.842Z,4.02
2023-05-04T01:01:59.899Z,4.01
2023-05-04T01:06:07.881Z,4.05
2023-05-04T01:10:22.707Z,4.09
2023-05-04T01:14:25.828Z,3.98
2023-05-04T01:18:27.841Z,3.92
2023-05-04T01:22:30.076Z,3.79
2023-05-04T01:26:40.046Z,3.76
2023-05-04T01:30:49.754Z,3.79
2023-05-04T01:34:52.000Z,3.84
2023-05-04T01:38:55.647Z,3.78
2023-05-04T01:42:57.670Z,3.74
2023-05-04T01:46:59.718Z,3.68
2023-05-04T01:51:01.808Z,3.61
2023-05-04T01:55:03.988Z,3.56
2023-05-04T01:59:07.677Z,3.63
2023-05-04T02:03:09.852Z,3.58
2023-05-04T02:07:12.863Z,3.41
2023-05-04T02:11:16.233Z,3.14
2023-05-04T02:15:18.288Z,3.11
2023-05-04T02:19:20.382Z,3.24
2023-05-04T02:23:22.428Z,3.23
2023-05-04T02:27:24.416Z,3.21
2023-05-04T02:31:26.446Z,3.08
2023-05-04T02:35:28.470Z,3.03
2023-05-04T02:39:30.503Z,3.04
2023-05-04T02:43:32.590Z,3.00
2023-05-04T02:47:35.078Z,3.05
2023-05-04T02:51:37.112Z,3.05
2023-05-04T02:55:39.177Z,2.98
2023-05-04T02:59:41.237Z,2.93
2023-05-04T03:03:43.424Z,2.92
2023-05-04T03:07:45.501Z,2.96
2023-05-04T03:11:47.608Z,3.08
2023-05-04T03:15:49.960Z,3.01
2023-05-04T03:19:52.170Z,3.05
2023-05-04T03:23:54.342Z,3.17
2023-05-04T03:27:57.278Z,3.26
2023-05-04T03:31:59.379Z,3.32
2023-05-04T03:36:01.570Z,3.38
2023-05-04T03:40:04.342Z,3.32
2023-05-04T03:44:06.574Z,3.33
2023-05-04T03:48:09.964Z,3.40
2023-05-04T03:52:11.970Z,3.46
2023-05-04T03:56:14.266Z,3.47
2023-05-04T04:00:17.229Z,3.44
2023-05-04T04:04:26.416Z,3.36
2023-05-04T04:08:28.435Z,3.43
2023-05-04T04:12:30.539Z,3.58
2023-05-04T04:16:32.604Z,3.72
2023-05-04T04:20:34.777Z,3.83
2023-05-04T04:24:36.744Z,3.84
2023-05-04T04:28:38.752Z,3.86
2023-05-04T04:32:41.339Z,4.05
2023-05-04T04:36:43.944Z,4.38
2023-05-04T04:40:46.010Z,4.64
2023-05-04T04:44:49.460Z,4.90
2023-05-04T04:48:53.412Z,5.14
2023-05-04T04:52:55.885Z,5.31
2023-05-04T04:56:59.435Z,5.78
2023-05-04T05:01:04.509Z,6.51
2023-05-04T05:05:07.773Z,6.89
2023-05-04T05:09:09.864Z,6.81
2023-05-04T05:13:12.000Z,6.65
2023-05-04T05:17:14.041Z,6.56
2023-05-04T05:21:16.039Z,6.63
2023-05-04T05:25:18.987Z,6.95
2023-05-04T05:29:21.482Z,7.27
2023-05-04T05:33:23.836Z,7.95
2023-05-04T05:37:25.835Z,8.58
2023-05-04T05:41:27.821Z,9.50
2023-05-04T05:45:29.893Z,10.86
2023-05-04T05:49:32.043Z,11.55
2023-05-04T05:53:34.152Z,11.79
2023-05-04T05:57:36.181Z,11.77
2023-05-04T06:01:38.194Z,12.19
2023-05-04T06:05:40.558Z,13.34
2023-05-04T06:09:42.591Z,14.90
2023-05-04T06:13:44.674Z,16.35
2023-05-04T06:17:48.904Z,17.24
2023-05-04T06:21:51.063Z,17.56
2023-05-04T06:25:53.161Z,18.99
2023-05-04T06:29:55.580Z,20.82
2023-05-04T06:33:57.819Z,22.12
2023-05-04T06:37:59.882Z,22.76
2023-05-04T06:42:02.200Z,23.91
2023-05-04T06:46:09.957Z,24.09
2023-05-04T06:50:12.339Z,22.76
2023-05-04T06:54:14.356Z,21.63
2023-05-04T06:58:18.991Z,20.26
2023-05-04T07:02:21.008Z,21.17
2023-05-04T07:06:26.348Z,22.83
2023-05-04T07:10:28.840Z,19.58
2023-05-04T07:14:30.868Z,16.90
2023-05-04T07:18:32.965Z,15.23
2023-05-04T07:22:35.087Z,14.33
2023-05-04T07:26:37.229Z,13.94
2023-05-04T07:30:39.251Z,13.61
2023-05-04T07:34:46.327Z,13.38
2023-05-04T07:38:48.625Z,13.30
2023-05-04T07:42:50.786Z,13.29
2023-05-04T07:46:52.790Z,13.36
2023-05-04T07:50:54.817Z,13.32
2023-05-04T07:54:56.860Z,13.32
2023-05-04T07:58:58.946Z,13.38
2023-05-04T08:03:00.986Z,13.56
2023-05-04T08:07:03.052Z,13.71
2023-05-04T08:11:18.681Z,13.90
2023-05-04T08:15:22.355Z,14.17
2023-05-04T08:19:24.520Z,14.38
2023-05-04T08:23:26.763Z,14.58
2023-05-04T08:27:28.834Z,14.64
2023-05-04T08:31:30.895Z,14.70
2023-05-04T08:35:32.984Z,14.80
2023-05-04T08:39:35.104Z,14.80
2023-05-04T08:43:37.405Z,14.78
2023-05-04T08:47:42.906Z,14.79
2023-05-04T08:51:46.113Z,14.75
2023-05-04T08:55:51.211Z,14.77
2023-05-04T08:59:54.691Z,14.69
2023-05-04T09:03:57.915Z,14.76
2023-05-04T09:08:00.081Z,14.95
2023-05-04T09:12:02.084Z,15.09
2023-05-04T09:16:04.717Z,15.12
2023-05-04T09:20:07.431Z,15.10
2023-05-04T09:24:09.634Z,15.14
2023-05-04T09:28:11.763Z,15.19
2023-05-04T09:32:16.379Z,15.29
2023-05-04T09:36:21.009Z,15.42
2023-05-04T09:40:36.033Z,15.49
2023-05-04T09:44:38.151Z,15.49
2023-05-04T09:48:50.851Z,15.46
2023-05-04T09:52:54.612Z,15.49
2023-05-04T09:57:05.616Z,15.56
2023-05-04T10:01:08.215Z,15.66
2023-05-04T10:05:14.821Z,15.77
2023-05-04T10:09:18.060Z,15.85
2023-05-04T10:13:20.056Z,15.94
2023-05-04T10:17:59.704Z,16.08
2023-05-04T10:22:26.386Z,16.23
2023-05-04T10:27:03.048Z,16.30
2023-05-04T10:31:07.315Z,16.44
2023-05-04T10:35:10.444Z,16.49
2023-05-04T10:39:18.776Z,16.57
2023-05-04T10:43:29.089Z,16.52
2023-05-04T10:47:35.624Z,16.76
2023-05-04T10:51:48.553Z,17.00
2023-05-04T10:55:51.563Z,17.23
2023-05-04T10:59:59.063Z,17.30
2023-05-04T11:04:01.529Z,17.36
2023-05-04T11:08:18.192Z,17.60
2023-05-04T11:12:20.328Z,17.76
2023-05-04T11:16:26.848Z,17.98
2023-05-04T11:20:29.024Z,18.10
2023-05-04T11:24:46.468Z,18.22
2023-05-04T11:28:48.462Z,18.25
2023-05-04T11:32:50.436Z,18.34
2023-05-04T11:36:54.513Z,18.46
2023-05-04T11:40:56.667Z,18.51
2023-05-04T11:44:58.855Z,18.58
2023-05-04T11:49:01.185Z,18.70
2023-05-04T11:53:12.166Z,18.75
2023-05-04T11:57:23.427Z,18.70
2023-05-04T12:01:25.619Z,18.78
2023-05-04T12:05:28.415Z,18.72
2023-05-04T12:09:30.657Z,18.66
2023-05-04T12:13:32.706Z,18.70
2023-05-04T12:17:43.979Z,18.72
2023-05-04T12:21:53.316Z,18.76
2023-05-04T12:25:58.468Z,18.74
2023-05-04T12:30:00.736Z,18.81
2023-05-04T12:34:02.725Z,18.95
2023-05-04T12:38:04.789Z,19.04
2023-05-04T12:42:06.819Z,19.09
2023-05-04T12:46:09.140Z,19.14
2023-05-04T12:50:11.241Z,19.18
2023-05-04T12:54:13.290Z,19.32
2023-05-04T12:58:15.382Z,19.48
2023-05-04T13:02:17.483Z,19.58
2023-05-04T13:06:19.772Z,19.49
2023-05-04T13:10:21.971Z,19.42
2023-05-04T13:14:24.079Z,19.47
2023-05-04T13:18:27.523Z,19.59
2023-05-04T13:22:29.873Z,19.61
2023-05-04T13:26:32.200Z,19.67
2023-05-04T13:30:34.231Z,19.59
2023-05-04T13:34:36.441Z,19.68
2023-05-04T13:38:38.595Z,19.74
2023-05-04T13:42:40.647Z,19.80
2023-05-04T13:46:42.751Z,19.85
2023-05-04T13:50:44.830Z,19.83
2023-05-04T13:54:46.905Z,19.74
2023-05-04T13:58:48.970Z,19.75
2023-05-04T14:02:51.084Z,19.85
2023-05-04T14:06:54.019Z,19.88
2023-05-04T14:10:56.577Z,19.89
2023-05-04T14:14:59.077Z,19.86
2023-05-04T14:19:01.202Z,19.88
2023-05-04T14:23:03.273Z,19.90
2023-05-04T14:27:05.449Z,19.96
2023-05-04T14:31:10.159Z,19.98
2023-05-04T14:35:12.519Z,20.10
2023-05-04T14:39:14.547Z,20.14
2023-05-04T14:43:16.835Z,20.14
2023-05-04T14:47:20.120Z,20.16
2023-05-04T14:51:30.342Z,20.18
2023-05-04T14:55:33.548Z,20.26
2023-05-04T14:59:35.644Z,20.32
2023-05-04T15:03:38.979Z,20.41
2023-05-04T15:07:41.158Z,20.36
2023-05-04T15:11:43.231Z,20.39
2023-05-04T15:15:45.442Z,20.30
2023-05-04T15:19:47.396Z,20.24
2023-05-04T15:23:49.369Z,20.17
2023-05-04T15:27:51.342Z,20.15
2023-05-04T15:31:54.597Z,20.17
2023-05-04T15:35:56.703Z,20.28
2023-05-04T15:40:01.119Z,20.33
2023-05-04T15:44:07.632Z,20.33
2023-05-04T15:48:09.717Z,20.31
2023-05-04T15:52:11.757Z,20.31
2023-05-04T15:56:15.409Z,20.35
2023-05-04T16:00:17.816Z,20.39
2023-05-04T16:04:20.185Z,20.42
2023-05-04T16:08:22.286Z,20.42
2023-05-04T16:12:24.295Z,20.43
2023-05-04T16:16:26.526Z,20.41
2023-05-04T16:20:28.782Z,20.40
2023-05-04T16:24:31.374Z,20.41
2023-05-04T16:28:34.852Z,20.42
2023-05-04T16:32:37.167Z,20.35
2023-05-04T16:36:39.251Z,20.26
2023-05-04T16:40:42.055Z,20.18
2023-05-04T16:44:44.094Z,20.12
2023-05-04T16:48:46.218Z,20.04
2023-05-04T16:52:48.201Z,19.90
2023-05-04T16:56:50.330Z,19.81
2023-05-04T17:00:52.347Z,19.71
2023-05-04T17:04:54.332Z,19.63
2023-05-04T17:08:56.401Z,19.53
2023-05-04T17:12:59.736Z,19.42
2023-05-04T17:17:03.728Z,19.34
2023-05-04T17:21:05.863Z,19.26
2023-05-04T17:25:09.569Z,19.16
2023-05-04T17:29:12.024Z,19.07
2023-05-04T17:33:14.184Z,18.98
2023-05-04T17:37:16.431Z,18.90
2023-05-04T17:41:18.648Z,18.84
2023-05-04T17:45:21.464Z,18.76
2023-05-04T17:49:23.475Z,18.65
2023-05-04T17:53:29.275Z,18.59
2023-05-04T17:57:31.350Z,18.51
2023-05-04T18:01:33.414Z,18.44
2023-05-04T18:05:35.650Z,18.34
2023-05-04T18:09:37.816Z,18.26
2023-05-04T18:13:39.808Z,18.15
2023-05-04T18:17:41.909Z,18.00
2023-05-04T18:21:43.931Z,17.86
2023-05-04T18:25:45.972Z,17.70
2023-05-04T18:29:48.656Z,17.56
2023-05-04T18:33:50.673Z,17.41
2023-05-04T18:37:52.663Z,17.27
2023-05-04T18:41:54.622Z,17.16
2023-05-04T18:45:56.878Z,17.03
2023-05-04T18:49:59.875Z,16.86
2023-05-04T18:54:02.161Z,16.63
2023-05-04T18:58:04.296Z,16.37
2023-05-04T19:02:07.139Z,16.03
2023-05-04T19:06:09.143Z,15.66
2023-05-04T19:10:11.616Z,15.24
2023-05-04T19:14:13.782Z,14.89
2023-05-04T19:18:16.957Z,14.63
2023-05-04T19:22:18.983Z,14.46
2023-05-04T19:26:21.446Z,14.29
2023-05-04T19:30:23.548Z,14.20
2023-05-04T19:34:25.623Z,14.09
2023-05-04T19:38:27.854Z,13.91
2023-05-04T19:42:29.845Z,13.73
2023-05-04T19:46:32.013Z,13.65
2023-05-04T19:50:34.081Z,13.47
2023-05-04T19:54:38.097Z,13.30
2023-05-04T19:58:40.222Z,13.16
2023-05-04T20:02:42.548Z,13.00
2023-05-04T20:06:44.690Z,12.94
2023-05-04T20:10:46.877Z,12.89
2023-05-04T20:14:48.890Z,12.60
2023-05-04T20:18:51.008Z,12.41
2023-05-04T20:22:53.121Z,12.30
2023-05-04T20:26:55.135Z,12.36
2023-05-04T20:30:57.279Z,12.45
2023-05-04T20:34:59.389Z,12.27
2023-05-04T20:39:02.451Z,12.24
2023-05-04T20:43:05.122Z,12.31
2023-05-04T20:47:07.116Z,12.35
2023-05-04T20:51:14.406Z,12.29
2023-05-04T20:55:17.736Z,12.26
2023-05-04T20:59:19.733Z,12.37
2023-05-04T21:03:21.789Z,12.43
2023-05-04T21:07:23.893Z,12.42
2023-05-04T21:11:25.901Z,12.39
2023-05-04T21:15:27.938Z,12.33
2023-05-04T21:19:29.994Z,12.29
2023-05-04T21:23:32.396Z,12.12
2023-05-04T21:27:34.441Z,11.89
2023-05-04T21:31:36.530Z,11.73
2023-05-04T21:35:38.693Z,11.66
2023-05-04T21:39:40.707Z,11.59
2023-05-04T21:43:43.377Z,11.46
2023-05-04T21:47:45.767Z,11.36
2023-05-04T21:51:47.773Z,11.33
2023-05-04T21:55:49.782Z,11.49
2023-05-04T21:59:51.900Z,11.49
2023-05-04T22:03:53.903Z,11.49
2023-05-04T22:07:55.917Z,11.50
2023-05-04T22:11:58.639Z,11.43
2023-05-04T22:16:00.784Z,11.44
2023-05-04T22:20:03.218Z,11.33
2023-05-04T22:24:05.747Z,11.24
2023-05-04T22:28:07.799Z,11.46
2023-05-04T22:32:09.815Z,11.66
2023-05-04T22:36:12.532Z,11.77
2023-05-04T22:40:14.689Z,11.81
2023-05-04T22:44:16.712Z,11.84
2023-05-04T22:48:20.003Z,11.90
2023-05-04T22:52:22.733Z,11.93
2023-05-04T22:56:25.567Z,12.00
2023-05-04T23:00:27.806Z,12.12
2023-05-04T23:04:30.148Z,12.22
2023-05-04T23:08:32.147Z,12.33
2023-05-04T23:12:34.262Z,12.47
2023-05-04T23:16:36.338Z,12.65
2023-05-04T23:20:38.359Z,12.79
2023-05-04T23:24:40.530Z,12.91
2023-05-04T23:28:42.628Z,13.06
2023-05-04T23:32:44.768Z,13.26
2023-05-04T23:36:46.833Z,13.38
2023-05-04T23:40:49.120Z,13.45
2023-05-04T23:44:54.064Z,13.49
2023-05-04T23:48:56.125Z,13.50
2023-05-04T23:52:58.129Z,13.50
2023-05-04T23:57:00.148Z,13.51
